sensor_id;sensor_type;location;lat;lon;timestamp;temperature;humidity
14283;DHT22;7225;59.282;18.344;2022-08-11T00:00:10;18.40;99.90
14283;DHT22;7225;59.282;18.344;2022-08-11T00:02:45;18.40;99.90
14283;DHT22;7225;59.282;18.344;2022-08-11T00:05:16;18.40;99.90
14283;DHT22;7225;59.282;18.344;2022-08-11T00:07:52;18.40;99.90
14283;DHT22;7225;59.282;18.344;2022-08-11T00:10:26;18.40;99.90
14283;DHT22;7225;59.282;18.344;2022-08-11T00:12:54;18.40;99.90
14283;DHT22;7225;59.282;18.344;2022-08-11T00:15:24;18.40;99.90
14283;DHT22;7225;59.282;18.344;2022-08-11T00:17:59;18.40;99.90
14283;DHT22;7225;59.282;18.344;2022-08-11T00:20:33;18.40;99.90
14283;DHT22;7225;59.282;18.344;2022-08-11T00:23:06;18.50;99.90
14283;DHT22;7225;59.282;18.344;2022-08-11T00:26:05;18.60;99.90
14283;DHT22;7225;59.282;18.344;2022-08-11T00:28:35;18.60;99.90
14283;DHT22;7225;59.282;18.344;2022-08-11T00:31:08;18.60;99.90
14283;DHT22;7225;59.282;18.344;2022-08-11T00:33:44;18.70;99.90
14283;DHT22;7225;59.282;18.344;2022-08-11T00:36:15;18.70;99.90
14283;DHT22;7225;59.282;18.344;2022-08-11T00:38:51;18.70;99.90
14283;DHT22;7225;59.282;18.344;2022-08-11T00:41:31;18.70;99.90
14283;DHT22;7225;59.282;18.344;2022-08-11T01:02:17;18.70;99.90
14283;DHT22;7225;59.282;18.344;2022-08-11T01:10:53;18.60;99.90
14283;DHT22;7225;59.282;18.344;2022-08-11T01:16:47;18.50;99.90
14283;DHT22;7225;59.282;18.344;2022-08-11T01:25:58;18.40;99.90
14283;DHT22;7225;59.282;18.344;2022-08-11T01:51:22;18.20;99.90
14283;DHT22;7225;59.282;18.344;2022-08-11T01:56:45;18.20;99.90
14283;DHT22;7225;59.282;18.344;2022-08-11T01:59:17;18.20;99.90
14283;DHT22;7225;59.282;18.344;2022-08-11T02:04:38;18.10;99.90
14283;DHT22;7225;59.282;18.344;2022-08-11T02:10:13;18.00;99.90
14283;DHT22;7225;59.282;18.344;2022-08-11T02:13:41;18.00;99.90
14283;DHT22;7225;59.282;18.344;2022-08-11T02:22:12;17.90;99.90
14283;DHT22;7225;59.282;18.344;2022-08-11T02:25:06;17.90;99.90
14283;DHT22;7225;59.282;18.344;2022-08-11T02:27:55;17.90;99.90
14283;DHT22;7225;59.282;18.344;2022-08-11T02:30:32;17.80;99.90
14283;DHT22;7225;59.282;18.344;2022-08-11T02:33:21;17.80;99.90
14283;DHT22;7225;59.282;18.344;2022-08-11T02:41:53;17.80;99.90
14283;DHT22;7225;59.282;18.344;2022-08-11T02:57:01;17.70;99.90
14283;DHT22;7225;59.282;18.344;2022-08-11T02:59:58;17.70;99.90
14283;DHT22;7225;59.282;18.344;2022-08-11T03:08:40;17.50;99.90
14283;DHT22;7225;59.282;18.344;2022-08-11T03:11:55;17.50;99.90
14283;DHT22;7225;59.282;18.344;2022-08-11T03:14:48;17.40;99.90
14283;DHT22;7225;59.282;18.344;2022-08-11T03:31:55;17.30;99.90
14283;DHT22;7225;59.282;18.344;2022-08-11T03:34:29;17.30;99.90
14283;DHT22;7225;59.282;18.344;2022-08-11T03:43:21;17.30;99.90
14283;DHT22;7225;59.282;18.344;2022-08-11T03:46:09;17.30;99.90
14283;DHT22;7225;59.282;18.344;2022-08-11T03:52:00;17.30;99.90
14283;DHT22;7225;59.282;18.344;2022-08-11T03:57:49;17.30;99.90
14283;DHT22;7225;59.282;18.344;2022-08-11T04:00:49;17.30;99.90
14283;DHT22;7225;59.282;18.344;2022-08-11T04:03:37;17.40;99.90
14283;DHT22;7225;59.282;18.344;2022-08-11T04:06:30;17.40;99.90
14283;DHT22;7225;59.282;18.344;2022-08-11T04:14:32;17.40;99.90
14283;DHT22;7225;59.282;18.344;2022-08-11T04:21:35;17.40;99.90
14283;DHT22;7225;59.282;18.344;2022-08-11T04:33:10;17.50;99.90
14283;DHT22;7225;59.282;18.344;2022-08-11T04:39:33;17.60;99.90
14283;DHT22;7225;59.282;18.344;2022-08-11T05:12:55;17.80;99.90
14283;DHT22;7225;59.282;18.344;2022-08-11T05:15:36;17.80;99.90
14283;DHT22;7225;59.282;18.344;2022-08-11T05:18:31;17.90;99.90
14283;DHT22;7225;59.282;18.344;2022-08-11T05:21:20;17.90;99.90
14283;DHT22;7225;59.282;18.344;2022-08-11T05:24:29;17.90;99.90
14283;DHT22;7225;59.282;18.344;2022-08-11T05:27:15;18.00;99.90
14283;DHT22;7225;59.282;18.344;2022-08-11T05:30:07;18.00;99.90
14283;DHT22;7225;59.282;18.344;2022-08-11T05:33:05;18.10;99.90
14283;DHT22;7225;59.282;18.344;2022-08-11T05:36:01;18.10;99.90
14283;DHT22;7225;59.282;18.344;2022-08-11T05:38:33;18.20;99.90
14283;DHT22;7225;59.282;18.344;2022-08-11T05:41:24;18.20;99.90
14283;DHT22;7225;59.282;18.344;2022-08-11T05:44:18;18.30;99.90
14283;DHT22;7225;59.282;18.344;2022-08-11T05:47:06;18.30;99.90
14283;DHT22;7225;59.282;18.344;2022-08-11T05:49:53;18.30;99.90
14283;DHT22;7225;59.282;18.344;2022-08-11T05:52:45;18.40;99.90
14283;DHT22;7225;59.282;18.344;2022-08-11T05:55:41;18.40;99.90
14283;DHT22;7225;59.282;18.344;2022-08-11T05:58:41;18.50;99.90
14283;DHT22;7225;59.282;18.344;2022-08-11T06:01:13;18.60;99.90
14283;DHT22;7225;59.282;18.344;2022-08-11T06:03:44;18.70;99.90
14283;DHT22;7225;59.282;18.344;2022-08-11T06:06:31;18.70;99.90
14283;DHT22;7225;59.282;18.344;2022-08-11T06:08:59;18.80;99.90
14283;DHT22;7225;59.282;18.344;2022-08-11T06:11:28;18.90;99.90
14283;DHT22;7225;59.282;18.344;2022-08-11T06:14:12;18.90;99.90
14283;DHT22;7225;59.282;18.344;2022-08-11T06:16:42;19.00;99.90
14283;DHT22;7225;59.282;18.344;2022-08-11T06:19:14;19.00;99.90
14283;DHT22;7225;59.282;18.344;2022-08-11T06:21:46;19.10;99.90
14283;DHT22;7225;59.282;18.344;2022-08-11T06:24:15;19.10;99.90
14283;DHT22;7225;59.282;18.344;2022-08-11T06:26:49;19.10;99.90
14283;DHT22;7225;59.282;18.344;2022-08-11T06:29:46;19.20;99.90
14283;DHT22;7225;59.282;18.344;2022-08-11T06:32:28;19.30;99.90
14283;DHT22;7225;59.282;18.344;2022-08-11T06:38:21;19.50;99.90
14283;DHT22;7225;59.282;18.344;2022-08-11T06:41:06;19.60;99.90
14283;DHT22;7225;59.282;18.344;2022-08-11T06:46:41;19.70;99.90
14283;DHT22;7225;59.282;18.344;2022-08-11T06:49:12;19.80;99.90
14283;DHT22;7225;59.282;18.344;2022-08-11T06:52:04;19.80;99.90
14283;DHT22;7225;59.282;18.344;2022-08-11T06:54:43;20.00;99.90
14283;DHT22;7225;59.282;18.344;2022-08-11T06:57:18;20.10;99.90
14283;DHT22;7225;59.282;18.344;2022-08-11T07:00:05;20.30;99.90
14283;DHT22;7225;59.282;18.344;2022-08-11T07:03:09;20.40;99.90
14283;DHT22;7225;59.282;18.344;2022-08-11T07:05:51;20.60;99.90
14283;DHT22;7225;59.282;18.344;2022-08-11T07:14:22;21.10;99.90
14283;DHT22;7225;59.282;18.344;2022-08-11T07:17:14;21.20;99.90
14283;DHT22;7225;59.282;18.344;2022-08-11T07:19:57;21.20;99.90
14283;DHT22;7225;59.282;18.344;2022-08-11T07:23:06;21.20;99.90
14283;DHT22;7225;59.282;18.344;2022-08-11T07:25:55;21.30;99.90
14283;DHT22;7225;59.282;18.344;2022-08-11T07:28:46;21.30;99.90
14283;DHT22;7225;59.282;18.344;2022-08-11T07:31:44;21.40;99.90
14283;DHT22;7225;59.282;18.344;2022-08-11T07:34:27;21.50;99.90
14283;DHT22;7225;59.282;18.344;2022-08-11T07:37:00;21.50;99.90
14283;DHT22;7225;59.282;18.344;2022-08-11T07:39:32;21.60;99.90
14283;DHT22;7225;59.282;18.344;2022-08-11T07:42:08;21.60;99.90
14283;DHT22;7225;59.282;18.344;2022-08-11T07:44:39;21.60;99.90
14283;DHT22;7225;59.282;18.344;2022-08-11T07:47:27;21.60;99.90
14283;DHT22;7225;59.282;18.344;2022-08-11T07:50:15;21.60;99.90
14283;DHT22;7225;59.282;18.344;2022-08-11T07:53:01;21.70;99.90
14283;DHT22;7225;59.282;18.344;2022-08-11T07:55:30;21.80;99.90
14283;DHT22;7225;59.282;18.344;2022-08-11T07:58:20;21.90;99.90
14283;DHT22;7225;59.282;18.344;2022-08-11T08:01:18;21.90;99.90
14283;DHT22;7225;59.282;18.344;2022-08-11T08:04:08;22.10;99.90
14283;DHT22;7225;59.282;18.344;2022-08-11T08:06:57;22.30;99.90
14283;DHT22;7225;59.282;18.344;2022-08-11T08:09:44;22.50;99.90
14283;DHT22;7225;59.282;18.344;2022-08-11T08:12:33;22.70;99.90
14283;DHT22;7225;59.282;18.344;2022-08-11T08:15:21;22.80;99.90
14283;DHT22;7225;59.282;18.344;2022-08-11T08:18:09;22.90;99.90
14283;DHT22;7225;59.282;18.344;2022-08-11T08:20:56;22.90;99.90
14283;DHT22;7225;59.282;18.344;2022-08-11T08:23:39;23.10;99.90
14283;DHT22;7225;59.282;18.344;2022-08-11T08:26:12;23.40;99.90
14283;DHT22;7225;59.282;18.344;2022-08-11T08:29:02;23.40;99.90
14283;DHT22;7225;59.282;18.344;2022-08-11T08:31:49;23.60;99.90
14283;DHT22;7225;59.282;18.344;2022-08-11T08:34:18;23.80;99.90
14283;DHT22;7225;59.282;18.344;2022-08-11T08:36:48;23.80;99.90
14283;DHT22;7225;59.282;18.344;2022-08-11T08:39:21;23.90;99.90
14283;DHT22;7225;59.282;18.344;2022-08-11T08:41:55;24.00;99.90
14283;DHT22;7225;59.282;18.344;2022-08-11T08:44:24;24.10;99.90
14283;DHT22;7225;59.282;18.344;2022-08-11T08:47:17;24.10;99.90
14283;DHT22;7225;59.282;18.344;2022-08-11T08:50:15;24.30;99.90
14283;DHT22;7225;59.282;18.344;2022-08-11T08:52:59;24.40;99.90
14283;DHT22;7225;59.282;18.344;2022-08-11T08:55:31;24.50;99.90
14283;DHT22;7225;59.282;18.344;2022-08-11T08:58:01;24.40;99.90
14283;DHT22;7225;59.282;18.344;2022-08-11T09:00:39;24.40;99.90
14283;DHT22;7225;59.282;18.344;2022-08-11T09:03:07;24.60;99.90
14283;DHT22;7225;59.282;18.344;2022-08-11T09:05:55;25.00;99.90
14283;DHT22;7225;59.282;18.344;2022-08-11T09:08:25;25.30;99.90
14283;DHT22;7225;59.282;18.344;2022-08-11T09:10:55;25.60;99.90
14283;DHT22;7225;59.282;18.344;2022-08-11T09:13:45;25.90;99.90
14283;DHT22;7225;59.282;18.344;2022-08-11T09:16:32;26.00;99.90
14283;DHT22;7225;59.282;18.344;2022-08-11T09:19:01;26.20;99.90
14283;DHT22;7225;59.282;18.344;2022-08-11T09:21:30;26.30;99.90
14283;DHT22;7225;59.282;18.344;2022-08-11T09:24:17;26.40;99.90
14283;DHT22;7225;59.282;18.344;2022-08-11T09:27:06;26.30;99.90
14283;DHT22;7225;59.282;18.344;2022-08-11T09:29:37;26.30;99.90
14283;DHT22;7225;59.282;18.344;2022-08-11T09:32:05;26.60;99.90
14283;DHT22;7225;59.282;18.344;2022-08-11T09:34:37;26.60;99.90
14283;DHT22;7225;59.282;18.344;2022-08-11T09:37:07;26.90;99.90
14283;DHT22;7225;59.282;18.344;2022-08-11T09:40:15;27.00;99.90
14283;DHT22;7225;59.282;18.344;2022-08-11T09:43:01;27.20;99.90
14283;DHT22;7225;59.282;18.344;2022-08-11T09:45:52;27.30;99.90
14283;DHT22;7225;59.282;18.344;2022-08-11T09:48:25;27.50;99.90
14283;DHT22;7225;59.282;18.344;2022-08-11T09:50:59;27.50;99.90
14283;DHT22;7225;59.282;18.344;2022-08-11T09:53:31;27.60;99.90
14283;DHT22;7225;59.282;18.344;2022-08-11T09:56:10;27.60;99.90
14283;DHT22;7225;59.282;18.344;2022-08-11T09:58:58;27.60;99.90
14283;DHT22;7225;59.282;18.344;2022-08-11T10:01:31;27.70;99.90
14283;DHT22;7225;59.282;18.344;2022-08-11T10:04:26;27.80;99.90
14283;DHT22;7225;59.282;18.344;2022-08-11T10:07:03;28.00;99.90
14283;DHT22;7225;59.282;18.344;2022-08-11T10:09:48;28.20;99.90
14283;DHT22;7225;59.282;18.344;2022-08-11T10:12:33;28.30;99.90
14283;DHT22;7225;59.282;18.344;2022-08-11T10:15:10;28.40;99.90
14283;DHT22;7225;59.282;18.344;2022-08-11T10:18:10;28.40;99.90
14283;DHT22;7225;59.282;18.344;2022-08-11T10:21:28;28.30;99.90
14283;DHT22;7225;59.282;18.344;2022-08-11T10:23:58;28.60;99.90
14283;DHT22;7225;59.282;18.344;2022-08-11T10:26:47;28.70;99.90
14283;DHT22;7225;59.282;18.344;2022-08-11T10:29:25;28.80;99.90
14283;DHT22;7225;59.282;18.344;2022-08-11T10:32:20;28.90;99.90
14283;DHT22;7225;59.282;18.344;2022-08-11T10:35:29;28.90;99.90
14283;DHT22;7225;59.282;18.344;2022-08-11T10:37:59;28.60;99.90
14283;DHT22;7225;59.282;18.344;2022-08-11T10:40:38;28.60;99.90
14283;DHT22;7225;59.282;18.344;2022-08-11T10:43:07;28.70;99.90
14283;DHT22;7225;59.282;18.344;2022-08-11T10:46:02;28.60;99.90
14283;DHT22;7225;59.282;18.344;2022-08-11T10:48:57;28.50;99.90
14283;DHT22;7225;59.282;18.344;2022-08-11T10:51:27;28.40;99.90
14283;DHT22;7225;59.282;18.344;2022-08-11T10:54:20;28.30;99.90
14283;DHT22;7225;59.282;18.344;2022-08-11T10:57:09;28.50;99.90
14283;DHT22;7225;59.282;18.344;2022-08-11T10:59:57;28.40;99.90
14283;DHT22;7225;59.282;18.344;2022-08-11T11:02:27;28.50;99.90
14283;DHT22;7225;59.282;18.344;2022-08-11T11:08:04;28.60;99.90
14283;DHT22;7225;59.282;18.344;2022-08-11T11:10:55;28.60;99.90
14283;DHT22;7225;59.282;18.344;2022-08-11T11:13:23;28.60;99.90
14283;DHT22;7225;59.282;18.344;2022-08-11T11:16:22;28.60;99.90
14283;DHT22;7225;59.282;18.344;2022-08-11T11:19:10;28.50;99.90
14283;DHT22;7225;59.282;18.344;2022-08-11T11:21:40;28.40;99.90
14283;DHT22;7225;59.282;18.344;2022-08-11T11:30:14;28.40;99.90
14283;DHT22;7225;59.282;18.344;2022-08-11T11:33:01;28.50;99.90
14283;DHT22;7225;59.282;18.344;2022-08-11T11:38:32;28.60;99.90
14283;DHT22;7225;59.282;18.344;2022-08-11T11:41:02;28.70;99.90
14283;DHT22;7225;59.282;18.344;2022-08-11T11:43:49;28.90;99.90
14283;DHT22;7225;59.282;18.344;2022-08-11T11:46:17;29.00;99.90
14283;DHT22;7225;59.282;18.344;2022-08-11T11:48:46;29.00;99.90
14283;DHT22;7225;59.282;18.344;2022-08-11T11:51:14;29.00;99.90
14283;DHT22;7225;59.282;18.344;2022-08-11T11:53:42;28.90;99.90
14283;DHT22;7225;59.282;18.344;2022-08-11T11:56:13;29.10;99.90
14283;DHT22;7225;59.282;18.344;2022-08-11T11:58:42;29.20;99.90
14283;DHT22;7225;59.282;18.344;2022-08-11T12:01:31;29.30;99.90
14283;DHT22;7225;59.282;18.344;2022-08-11T12:04:02;29.30;99.90
14283;DHT22;7225;59.282;18.344;2022-08-11T12:06:32;29.40;99.90
14283;DHT22;7225;59.282;18.344;2022-08-11T12:09:05;29.50;99.90
14283;DHT22;7225;59.282;18.344;2022-08-11T12:11:33;29.60;99.90
14283;DHT22;7225;59.282;18.344;2022-08-11T12:14:21;29.50;99.90
14283;DHT22;7225;59.282;18.344;2022-08-11T12:16:51;29.70;99.90
14283;DHT22;7225;59.282;18.344;2022-08-11T12:19:23;29.80;99.90
14283;DHT22;7225;59.282;18.344;2022-08-11T12:21:56;29.70;99.60
14283;DHT22;7225;59.282;18.344;2022-08-11T12:24:46;29.90;99.90
14283;DHT22;7225;59.282;18.344;2022-08-11T12:27:33;29.90;99.90
14283;DHT22;7225;59.282;18.344;2022-08-11T12:30:06;30.00;99.90
14283;DHT22;7225;59.282;18.344;2022-08-11T12:32:37;29.90;98.40
14283;DHT22;7225;59.282;18.344;2022-08-11T12:35:07;30.20;99.90
14283;DHT22;7225;59.282;18.344;2022-08-11T12:37:40;30.20;99.90
14283;DHT22;7225;59.282;18.344;2022-08-11T12:40:12;30.30;99.90
14283;DHT22;7225;59.282;18.344;2022-08-11T12:43:21;30.50;98.70
14283;DHT22;7225;59.282;18.344;2022-08-11T12:46:19;30.60;96.60
14283;DHT22;7225;59.282;18.344;2022-08-11T12:48:58;30.30;94.60
14283;DHT22;7225;59.282;18.344;2022-08-11T12:51:50;30.30;95.60
14283;DHT22;7225;59.282;18.344;2022-08-11T12:54:55;30.40;94.50
14283;DHT22;7225;59.282;18.344;2022-08-11T12:57:38;30.40;94.60
14283;DHT22;7225;59.282;18.344;2022-08-11T13:00:29;30.50;93.80
14283;DHT22;7225;59.282;18.344;2022-08-11T13:03:19;30.50;96.10
14283;DHT22;7225;59.282;18.344;2022-08-11T13:06:07;30.60;94.30
14283;DHT22;7225;59.282;18.344;2022-08-11T13:08:38;30.70;94.30
14283;DHT22;7225;59.282;18.344;2022-08-11T13:11:08;30.80;92.70
14283;DHT22;7225;59.282;18.344;2022-08-11T13:14:16;30.90;93.60
14283;DHT22;7225;59.282;18.344;2022-08-11T13:16:47;30.90;92.60
14283;DHT22;7225;59.282;18.344;2022-08-11T13:19:36;31.10;92.50
14283;DHT22;7225;59.282;18.344;2022-08-11T13:22:06;31.10;91.90
14283;DHT22;7225;59.282;18.344;2022-08-11T13:24:35;31.10;91.80
14283;DHT22;7225;59.282;18.344;2022-08-11T13:27:04;31.20;91.70
14283;DHT22;7225;59.282;18.344;2022-08-11T13:29:34;31.20;90.80
14283;DHT22;7225;59.282;18.344;2022-08-11T13:32:03;31.30;89.00
14283;DHT22;7225;59.282;18.344;2022-08-11T13:34:33;31.40;91.00
14283;DHT22;7225;59.282;18.344;2022-08-11T13:37:10;31.60;90.50
14283;DHT22;7225;59.282;18.344;2022-08-11T13:39:44;31.80;90.80
14283;DHT22;7225;59.282;18.344;2022-08-11T13:42:15;31.80;90.00
14283;DHT22;7225;59.282;18.344;2022-08-11T13:44:47;31.90;89.50
14283;DHT22;7225;59.282;18.344;2022-08-11T13:47:16;31.90;86.90
14283;DHT22;7225;59.282;18.344;2022-08-11T13:49:44;31.90;86.20
14283;DHT22;7225;59.282;18.344;2022-08-11T13:52:14;31.90;85.40
14283;DHT22;7225;59.282;18.344;2022-08-11T13:54:46;31.80;84.10
14283;DHT22;7225;59.282;18.344;2022-08-11T13:57:16;31.70;82.00
14283;DHT22;7225;59.282;18.344;2022-08-11T14:00:08;31.60;81.40
14283;DHT22;7225;59.282;18.344;2022-08-11T14:02:57;31.70;79.60
14283;DHT22;7225;59.282;18.344;2022-08-11T14:05:48;31.60;79.90
14283;DHT22;7225;59.282;18.344;2022-08-11T14:08:24;31.60;78.50
14283;DHT22;7225;59.282;18.344;2022-08-11T14:11:06;31.60;79.00
14283;DHT22;7225;59.282;18.344;2022-08-11T14:14:20;31.60;77.90
14283;DHT22;7225;59.282;18.344;2022-08-11T14:16:51;31.60;79.20
14283;DHT22;7225;59.282;18.344;2022-08-11T14:19:24;31.50;76.90
14283;DHT22;7225;59.282;18.344;2022-08-11T14:21:54;31.40;75.40
14283;DHT22;7225;59.282;18.344;2022-08-11T14:24:37;31.40;73.80
14283;DHT22;7225;59.282;18.344;2022-08-11T14:27:11;31.30;74.80
14283;DHT22;7225;59.282;18.344;2022-08-11T14:30:00;31.20;74.80
14283;DHT22;7225;59.282;18.344;2022-08-11T14:32:29;31.40;76.40
14283;DHT22;7225;59.282;18.344;2022-08-11T14:35:01;31.40;77.20
14283;DHT22;7225;59.282;18.344;2022-08-11T14:37:29;31.40;77.20
14283;DHT22;7225;59.282;18.344;2022-08-11T14:39:58;31.30;77.60
14283;DHT22;7225;59.282;18.344;2022-08-11T14:42:32;31.50;79.20
14283;DHT22;7225;59.282;18.344;2022-08-11T14:45:19;31.40;79.70
14283;DHT22;7225;59.282;18.344;2022-08-11T14:48:26;31.50;81.70
14283;DHT22;7225;59.282;18.344;2022-08-11T14:50:55;31.50;80.80
14283;DHT22;7225;59.282;18.344;2022-08-11T14:53:23;31.20;80.50
14283;DHT22;7225;59.282;18.344;2022-08-11T14:55:53;31.00;80.30
14283;DHT22;7225;59.282;18.344;2022-08-11T14:58:41;30.90;82.00
14283;DHT22;7225;59.282;18.344;2022-08-11T15:01:11;30.80;81.80
14283;DHT22;7225;59.282;18.344;2022-08-11T15:04:10;30.70;83.30
14283;DHT22;7225;59.282;18.344;2022-08-11T15:07:00;30.60;82.00
14283;DHT22;7225;59.282;18.344;2022-08-11T15:09:29;30.60;84.00
14283;DHT22;7225;59.282;18.344;2022-08-11T15:11:58;30.60;84.20
14283;DHT22;7225;59.282;18.344;2022-08-11T15:14:56;30.70;84.50
14283;DHT22;7225;59.282;18.344;2022-08-11T15:17:44;30.60;83.70
14283;DHT22;7225;59.282;18.344;2022-08-11T15:20:17;30.70;85.00
14283;DHT22;7225;59.282;18.344;2022-08-11T15:23:08;30.80;83.80
14283;DHT22;7225;59.282;18.344;2022-08-11T15:26:20;30.90;83.30
14283;DHT22;7225;59.282;18.344;2022-08-11T15:29:13;30.90;83.20
14283;DHT22;7225;59.282;18.344;2022-08-11T15:32:01;30.90;83.80
14283;DHT22;7225;59.282;18.344;2022-08-11T15:34:56;30.90;83.40
14283;DHT22;7225;59.282;18.344;2022-08-11T15:37:44;30.80;83.60
14283;DHT22;7225;59.282;18.344;2022-08-11T15:40:49;30.60;84.00
14283;DHT22;7225;59.282;18.344;2022-08-11T15:43:42;30.50;82.40
14283;DHT22;7225;59.282;18.344;2022-08-11T15:46:49;30.40;83.20
14283;DHT22;7225;59.282;18.344;2022-08-11T15:49:28;30.30;82.70
14283;DHT22;7225;59.282;18.344;2022-08-11T15:52:21;30.20;82.00
14283;DHT22;7225;59.282;18.344;2022-08-11T15:54:52;30.20;82.60
14283;DHT22;7225;59.282;18.344;2022-08-11T15:57:21;30.20;82.70
14283;DHT22;7225;59.282;18.344;2022-08-11T16:00:09;30.00;81.70
14283;DHT22;7225;59.282;18.344;2022-08-11T16:02:58;29.90;82.70
14283;DHT22;7225;59.282;18.344;2022-08-11T16:05:46;29.80;81.80
14283;DHT22;7225;59.282;18.344;2022-08-11T16:08:20;29.70;80.80
14283;DHT22;7225;59.282;18.344;2022-08-11T16:11:01;29.60;80.20
14283;DHT22;7225;59.282;18.344;2022-08-11T16:13:37;29.60;80.70
14283;DHT22;7225;59.282;18.344;2022-08-11T16:16:10;29.40;80.20
14283;DHT22;7225;59.282;18.344;2022-08-11T16:18:53;29.30;80.20
14283;DHT22;7225;59.282;18.344;2022-08-11T16:21:33;29.20;78.80
14283;DHT22;7225;59.282;18.344;2022-08-11T16:24:11;29.10;80.30
14283;DHT22;7225;59.282;18.344;2022-08-11T16:27:00;28.90;78.10
14283;DHT22;7225;59.282;18.344;2022-08-11T16:29:46;28.80;80.20
14283;DHT22;7225;59.282;18.344;2022-08-11T16:32:17;28.60;78.80
14283;DHT22;7225;59.282;18.344;2022-08-11T16:34:56;28.50;80.10
14283;DHT22;7225;59.282;18.344;2022-08-11T16:37:44;28.40;80.60
14283;DHT22;7225;59.282;18.344;2022-08-11T16:40:33;28.40;80.40
14283;DHT22;7225;59.282;18.344;2022-08-11T16:43:05;28.20;79.80
14283;DHT22;7225;59.282;18.344;2022-08-11T16:45:53;28.00;78.10
14283;DHT22;7225;59.282;18.344;2022-08-11T16:48:42;28.00;80.10
14283;DHT22;7225;59.282;18.344;2022-08-11T16:51:12;27.90;79.70
14283;DHT22;7225;59.282;18.344;2022-08-11T16:53:43;27.80;80.90
14283;DHT22;7225;59.282;18.344;2022-08-11T16:56:46;27.70;80.20
14283;DHT22;7225;59.282;18.344;2022-08-11T16:59:25;27.70;81.40
14283;DHT22;7225;59.282;18.344;2022-08-11T17:02:02;27.60;81.90
14283;DHT22;7225;59.282;18.344;2022-08-11T17:04:49;27.60;82.20
14283;DHT22;7225;59.282;18.344;2022-08-11T17:07:40;27.60;83.00
14283;DHT22;7225;59.282;18.344;2022-08-11T17:10:57;27.40;81.90
14283;DHT22;7225;59.282;18.344;2022-08-11T17:14:29;27.40;83.60
14283;DHT22;7225;59.282;18.344;2022-08-11T17:17:12;27.40;82.50
14283;DHT22;7225;59.282;18.344;2022-08-11T17:19:49;27.30;83.40
14283;DHT22;7225;59.282;18.344;2022-08-11T17:22:41;27.30;82.30
14283;DHT22;7225;59.282;18.344;2022-08-11T17:25:30;27.10;81.60
14283;DHT22;7225;59.282;18.344;2022-08-11T17:28:20;27.00;83.10
14283;DHT22;7225;59.282;18.344;2022-08-11T17:30:54;27.00;83.40
14283;DHT22;7225;59.282;18.344;2022-08-11T17:33:50;27.00;83.20
14283;DHT22;7225;59.282;18.344;2022-08-11T17:36:40;26.90;83.00
14283;DHT22;7225;59.282;18.344;2022-08-11T17:39:14;26.90;83.10
14283;DHT22;7225;59.282;18.344;2022-08-11T17:41:43;26.80;83.40
14283;DHT22;7225;59.282;18.344;2022-08-11T17:44:32;26.80;83.30
14283;DHT22;7225;59.282;18.344;2022-08-11T17:47:20;26.70;84.00
14283;DHT22;7225;59.282;18.344;2022-08-11T17:50:08;26.60;84.30
14283;DHT22;7225;59.282;18.344;2022-08-11T17:52:45;26.60;83.40
14283;DHT22;7225;59.282;18.344;2022-08-11T17:55:35;26.50;84.80
14283;DHT22;7225;59.282;18.344;2022-08-11T17:58:25;26.50;84.60
14283;DHT22;7225;59.282;18.344;2022-08-11T18:01:14;26.40;84.40
14283;DHT22;7225;59.282;18.344;2022-08-11T18:03:44;26.40;84.80
14283;DHT22;7225;59.282;18.344;2022-08-11T18:06:27;26.40;86.00
14283;DHT22;7225;59.282;18.344;2022-08-11T18:09:04;26.30;85.10
14283;DHT22;7225;59.282;18.344;2022-08-11T18:11:54;26.20;85.30
14283;DHT22;7225;59.282;18.344;2022-08-11T18:14:48;26.20;85.60
14283;DHT22;7225;59.282;18.344;2022-08-11T18:17:38;26.20;84.60
14283;DHT22;7225;59.282;18.344;2022-08-11T18:20:25;26.10;84.60
14283;DHT22;7225;59.282;18.344;2022-08-11T18:23:18;26.00;84.80
14283;DHT22;7225;59.282;18.344;2022-08-11T18:26:18;26.00;85.80
14283;DHT22;7225;59.282;18.344;2022-08-11T18:29:06;25.90;85.30
14283;DHT22;7225;59.282;18.344;2022-08-11T18:31:56;25.80;86.80
14283;DHT22;7225;59.282;18.344;2022-08-11T18:34:53;25.80;84.80
14283;DHT22;7225;59.282;18.344;2022-08-11T18:37:44;25.70;85.70
14283;DHT22;7225;59.282;18.344;2022-08-11T18:40:34;25.70;86.40
14283;DHT22;7225;59.282;18.344;2022-08-11T18:43:23;25.60;87.30
14283;DHT22;7225;59.282;18.344;2022-08-11T18:46:14;25.50;86.40
14283;DHT22;7225;59.282;18.344;2022-08-11T18:49:11;25.50;87.10
14283;DHT22;7225;59.282;18.344;2022-08-11T18:52:20;25.40;88.30
14283;DHT22;7225;59.282;18.344;2022-08-11T18:55:11;25.30;89.20
14283;DHT22;7225;59.282;18.344;2022-08-11T18:58:04;25.30;89.10
14283;DHT22;7225;59.282;18.344;2022-08-11T19:00:56;25.30;89.30
14283;DHT22;7225;59.282;18.344;2022-08-11T19:03:45;25.20;89.30
14283;DHT22;7225;59.282;18.344;2022-08-11T19:06:40;25.10;90.00
14283;DHT22;7225;59.282;18.344;2022-08-11T19:09:29;25.00;90.10
14283;DHT22;7225;59.282;18.344;2022-08-11T19:12:19;25.00;90.20
14283;DHT22;7225;59.282;18.344;2022-08-11T19:15:08;24.90;90.90
14283;DHT22;7225;59.282;18.344;2022-08-11T19:17:56;24.90;92.50
14283;DHT22;7225;59.282;18.344;2022-08-11T19:20:45;24.80;92.00
14283;DHT22;7225;59.282;18.344;2022-08-11T19:23:40;24.80;91.70
14283;DHT22;7225;59.282;18.344;2022-08-11T19:26:29;24.70;92.40
14283;DHT22;7225;59.282;18.344;2022-08-11T19:29:22;24.60;92.50
14283;DHT22;7225;59.282;18.344;2022-08-11T19:32:32;24.50;92.50
14283;DHT22;7225;59.282;18.344;2022-08-11T19:35:19;24.30;92.30
14283;DHT22;7225;59.282;18.344;2022-08-11T19:38:07;24.10;92.40
14283;DHT22;7225;59.282;18.344;2022-08-11T19:40:56;24.00;92.60
14283;DHT22;7225;59.282;18.344;2022-08-11T19:43:50;23.90;92.70
14283;DHT22;7225;59.282;18.344;2022-08-11T19:46:46;23.70;93.10
14283;DHT22;7225;59.282;18.344;2022-08-11T19:49:37;23.50;93.30
14283;DHT22;7225;59.282;18.344;2022-08-11T19:52:27;23.30;94.00
14283;DHT22;7225;59.282;18.344;2022-08-11T19:55:15;23.20;94.20
14283;DHT22;7225;59.282;18.344;2022-08-11T19:58:04;23.00;94.90
14283;DHT22;7225;59.282;18.344;2022-08-11T20:00:52;22.90;95.00
14283;DHT22;7225;59.282;18.344;2022-08-11T20:03:39;22.70;96.00
14283;DHT22;7225;59.282;18.344;2022-08-11T20:06:27;22.50;96.90
14283;DHT22;7225;59.282;18.344;2022-08-11T20:09:16;22.50;96.80
14283;DHT22;7225;59.282;18.344;2022-08-11T20:12:24;22.40;97.90
14283;DHT22;7225;59.282;18.344;2022-08-11T20:15:17;22.30;99.10
14283;DHT22;7225;59.282;18.344;2022-08-11T20:18:06;22.10;99.70
14283;DHT22;7225;59.282;18.344;2022-08-11T20:20:57;22.00;99.60
14283;DHT22;7225;59.282;18.344;2022-08-11T20:24:00;21.90;99.90
14283;DHT22;7225;59.282;18.344;2022-08-11T20:26:49;21.80;99.90
14283;DHT22;7225;59.282;18.344;2022-08-11T20:29:53;21.60;99.90